createdAt,value
2022-08-26T00:01:56.709Z,101317.73
2022-08-26T00:04:26.271Z,101324.07
2022-08-26T00:06:57.626Z,101315.66
2022-08-26T00:09:26.967Z,101314.59
2022-08-26T00:11:55.400Z,101304.05
2022-08-26T00:14:31.021Z,101310.40
2022-08-26T00:16:59.570Z,101311.74
2022-08-26T00:19:27.638Z,101303.30
2022-08-26T00:21:55.329Z,101306.21
2022-08-26T00:24:23.686Z,101303.07
2022-08-26T00:26:52.484Z,101312.33
2022-08-26T00:29:21.384Z,101302.62
2022-08-26T00:31:50.613Z,101316.88
2022-08-26T00:34:19.422Z,101316.58
2022-08-26T00:36:49.368Z,101322.17
2022-08-26T00:39:21.030Z,101322.73
2022-08-26T00:41:49.219Z,101334.59
2022-08-26T00:44:18.131Z,101331.45
2022-08-26T00:46:54.623Z,101324.07
2022-08-26T00:49:40.731Z,101321.71
2022-08-26T00:52:12.093Z,101325.96
2022-08-26T00:54:47.796Z,101323.58
2022-08-26T00:57:18.691Z,101310.92
2022-08-26T00:59:52.449Z,101320.96
2022-08-26T01:02:21.556Z,101315.17
2022-08-26T01:04:55.825Z,101325.77
2022-08-26T01:07:30.214Z,101316.25
2022-08-26T01:10:01.099Z,101321.26
2022-08-26T01:12:32.910Z,101324.95
2022-08-26T01:15:01.682Z,101324.16
2022-08-26T01:17:29.383Z,101319.42
2022-08-26T01:20:19.349Z,101315.50
2022-08-26T01:23:08.957Z,101326.32
2022-08-26T01:25:43.099Z,101323.19
2022-08-26T01:28:22.908Z,101332.41
2022-08-26T01:30:54.076Z,101324.79
2022-08-26T01:33:27.580Z,101331.13
2022-08-26T01:35:56.373Z,101327.73
2022-08-26T01:38:24.166Z,101339.86
2022-08-26T01:40:52.474Z,101331.69
2022-08-26T01:43:27.069Z,101336.46
2022-08-26T01:45:57.982Z,101341.98
2022-08-26T01:48:32.947Z,101336.76
2022-08-26T01:51:04.474Z,101338.84
2022-08-26T01:53:34.704Z,101334.66
2022-08-26T01:56:03.954Z,101343.10
2022-08-26T01:58:37.701Z,101344.66
2022-08-26T02:01:07.123Z,101335.74
2022-08-26T02:03:45.494Z,101328.38
2022-08-26T02:06:15.213Z,101332.05
2022-08-26T02:08:48.135Z,101330.48
2022-08-26T02:11:18.557Z,101332.34
2022-08-26T02:13:50.361Z,101333.38
2022-08-26T02:16:22.490Z,101345.23
2022-08-26T02:18:52.790Z,101340.52
2022-08-26T02:21:21.437Z,101346.07
2022-08-26T02:23:53.534Z,101340.55
2022-08-26T02:26:26.987Z,101345.59
2022-08-26T02:29:03.716Z,101341.63
2022-08-26T02:31:32.336Z,101345.29
2022-08-26T02:34:12.026Z,101341.34
2022-08-26T02:36:40.121Z,101340.29
2022-08-26T02:39:09.165Z,101345.29
2022-08-26T02:41:44.900Z,101346.37
2022-08-26T02:44:13.243Z,101349.28
2022-08-26T02:46:41.872Z,101344.02
2022-08-26T02:49:15.236Z,101337.44
2022-08-26T02:51:44.599Z,101335.05
2022-08-26T02:54:12.995Z,101336.95
2022-08-26T02:56:41.161Z,101334.04
2022-08-26T02:59:09.577Z,101337.48
2022-08-26T03:01:37.633Z,101340.35
2022-08-26T03:04:07.495Z,101336.66
2022-08-26T03:06:35.258Z,101336.40
2022-08-26T03:09:06.161Z,101334.04
2022-08-26T03:11:34.544Z,101340.61
2022-08-26T03:14:03.500Z,101338.26
2022-08-26T03:16:39.018Z,101340.91
2022-08-26T03:19:09.228Z,101338.03
2022-08-26T03:21:38.646Z,101327.77
2022-08-26T03:24:07.129Z,101331.20
2022-08-26T03:26:34.803Z,101336.72
2022-08-26T03:29:24.777Z,101336.49
2022-08-26T03:31:52.624Z,101334.37
2022-08-26T03:34:20.319Z,101336.49
2022-08-26T03:36:50.293Z,101334.37
2022-08-26T03:39:17.930Z,101327.80
2022-08-26T03:41:48.539Z,101331.20
2022-08-26T03:44:16.240Z,101332.80
2022-08-26T03:46:45.221Z,101327.80
2022-08-26T03:49:13.029Z,101331.78
2022-08-26T03:51:42.873Z,101327.56
2022-08-26T03:54:12.534Z,101320.96
2022-08-26T03:56:40.256Z,101323.09
2022-08-26T03:59:08.444Z,101324.69
2022-08-26T04:01:36.964Z,101329.69
2022-08-26T04:04:05.306Z,101325.48
2022-08-26T04:06:37.892Z,101326.55
2022-08-26T04:09:14.666Z,101326.55
2022-08-26T04:11:45.299Z,101325.73
2022-08-26T04:14:20.067Z,101324.98
2022-08-26T04:16:49.113Z,101332.08
2022-08-26T04:19:17.777Z,101326.29
2022-08-26T04:21:47.121Z,101333.65
2022-08-26T04:24:17.668Z,101332.60
2022-08-26T04:26:46.305Z,101334.17
2022-08-26T04:29:22.367Z,101335.22
2022-08-26T04:31:50.106Z,101328.38
2022-08-26T04:34:24.948Z,101329.43
2022-08-26T04:36:57.135Z,101327.08
2022-08-26T04:39:25.396Z,101327.86
2022-08-26T04:41:56.073Z,101332.08
2022-08-26T04:44:28.499Z,101327.34
2022-08-26T04:46:57.087Z,101332.63
2022-08-26T04:49:26.094Z,101333.95
2022-08-26T04:51:56.079Z,101340.25
2022-08-26T04:54:23.850Z,101336.59
2022-08-26T04:56:53.109Z,101333.16
2022-08-26T04:59:20.857Z,101331.59
2022-08-26T05:01:52.360Z,101332.63
2022-08-26T05:04:21.413Z,101342.12
2022-08-26T05:06:50.794Z,101338.42
2022-08-26T05:09:20.207Z,101346.04
2022-08-26T05:11:52.227Z,101339.99
2022-08-26T05:14:22.374Z,101338.42
2022-08-26T05:16:50.441Z,101342.12
2022-08-26T05:19:19.358Z,101350.52
2022-08-26T05:21:48.901Z,101349.77
2022-08-26T05:24:17.330Z,101353.43
2022-08-26T05:26:45.860Z,101354.22
2022-08-26T05:29:15.050Z,101345.03
2022-08-26T05:31:44.561Z,101347.38
2022-08-26T05:34:12.828Z,101348.95
2022-08-26T05:36:41.322Z,101344.21
2022-08-26T05:39:10.598Z,101349.48
2022-08-26T05:41:40.598Z,101349.21
2022-08-26T05:44:12.755Z,101354.97
2022-08-26T05:46:44.020Z,101355.20
2022-08-26T05:49:13.080Z,101360.46
2022-08-26T05:51:42.797Z,101359.61
2022-08-26T05:54:10.679Z,101354.28
2022-08-26T05:56:39.504Z,101359.25
2022-08-26T05:59:14.162Z,101362.16
2022-08-26T06:01:44.248Z,101363.21
2022-08-26T06:04:13.103Z,101366.35
2022-08-26T06:06:43.691Z,101364.52
2022-08-26T06:09:13.188Z,101365.53
2022-08-26T06:11:41.370Z,101374.49
2022-08-26T06:14:10.872Z,101368.15
2022-08-26T06:16:41.521Z,101373.90
2022-08-26T06:19:11.767Z,101373.38
2022-08-26T06:21:41.581Z,101377.56
2022-08-26T06:24:30.525Z,101380.48
2022-08-26T06:27:02.412Z,101368.84
2022-08-26T06:29:32.638Z,101390.97
2022-08-26T06:32:01.635Z,101390.68
2022-08-26T06:34:30.651Z,101388.29
2022-08-26T06:37:02.452Z,101379.88
2022-08-26T06:39:31.941Z,101386.69
2022-08-26T06:42:06.267Z,101389.04
2022-08-26T06:44:34.338Z,101389.01
2022-08-26T06:47:02.381Z,101388.45
2022-08-26T06:49:30.071Z,101388.95
2022-08-26T06:52:00.817Z,101395.81
2022-08-26T06:54:32.635Z,101392.61
2022-08-26T06:57:01.282Z,101394.44
2022-08-26T06:59:29.414Z,101395.22
2022-08-26T07:01:57.177Z,101402.58
2022-08-26T07:04:27.838Z,101385.87
2022-08-26T07:06:56.925Z,101384.82
2022-08-26T07:09:27.869Z,101389.80
2022-08-26T07:11:57.293Z,101395.02
2022-08-26T07:14:26.469Z,101388.39
2022-08-26T07:16:54.880Z,101386.75
2022-08-26T07:19:27.602Z,101386.46
2022-08-26T07:22:03.974Z,101386.43
2022-08-26T07:24:33.063Z,101383.22
2022-08-26T07:27:02.903Z,101392.67
2022-08-26T07:29:31.237Z,101387.34
2022-08-26T07:31:59.516Z,101393.91
2022-08-26T07:34:28.399Z,101394.08
2022-08-26T07:36:58.736Z,101406.41
2022-08-26T07:39:27.957Z,101400.00
2022-08-26T07:41:56.245Z,101402.32
2022-08-26T07:44:25.647Z,101399.87
2022-08-26T07:46:53.561Z,101408.23
2022-08-26T07:49:24.322Z,101387.84
2022-08-26T07:51:52.624Z,101397.55
2022-08-26T07:54:20.659Z,101392.67
2022-08-26T07:56:55.944Z,101384.10
2022-08-26T07:59:24.438Z,101388.20
2022-08-26T08:01:52.420Z,101391.73
2022-08-26T08:04:26.162Z,101383.94
2022-08-26T08:06:54.914Z,101385.34
2022-08-26T08:09:23.320Z,101382.27
2022-08-26T08:11:53.007Z,101387.93
2022-08-26T08:14:22.154Z,101380.93
2022-08-26T08:16:51.159Z,101374.91
2022-08-26T08:19:23.953Z,101378.19
2022-08-26T08:22:00.814Z,101380.90
2022-08-26T08:24:29.667Z,101373.54
2022-08-26T08:26:57.425Z,101373.67
2022-08-26T08:29:29.202Z,101374.23
2022-08-26T08:32:00.882Z,101370.86
2022-08-26T08:34:30.261Z,101366.97
2022-08-26T08:36:58.887Z,101368.87
2022-08-26T08:39:28.344Z,101370.77
2022-08-26T08:42:25.671Z,101363.47
2022-08-26T08:44:57.408Z,101364.59
2022-08-26T08:47:25.233Z,101370.14
2022-08-26T08:49:56.279Z,101367.33
2022-08-26T08:52:36.614Z,101364.95
2022-08-26T08:55:11.142Z,101362.95
2022-08-26T08:58:08.129Z,101369.84
2022-08-26T09:00:47.891Z,101364.84
2022-08-26T09:03:38.485Z,101361.84
2022-08-26T09:06:18.379Z,101362.45
2022-08-26T09:08:50.092Z,101365.23
2022-08-26T09:11:21.081Z,101363.93
2022-08-26T09:13:54.948Z,101364.59
2022-08-26T09:16:33.477Z,101357.84
2022-08-26T09:19:15.518Z,101350.85
2022-08-26T09:21:47.494Z,101360.82
2022-08-26T09:24:22.243Z,101351.90
2022-08-26T09:26:50.690Z,101348.40
2022-08-26T09:29:32.008Z,101345.71
2022-08-26T09:32:26.622Z,101352.78
2022-08-26T09:35:00.225Z,101346.34
2022-08-26T09:40:34.983Z,101345.35
2022-08-26T09:43:23.192Z,101349.87
2022-08-26T09:45:59.737Z,101342.87
2022-08-26T09:48:36.825Z,101340.55
2022-08-26T09:51:33.810Z,101335.91
2022-08-26T09:54:05.687Z,101336.33
2022-08-26T09:56:39.522Z,101335.58
2022-08-26T09:59:11.716Z,101335.80
2022-08-26T10:01:45.126Z,101330.02
2022-08-26T10:04:24.945Z,101322.82
2022-08-26T10:07:08.382Z,101324.46
2022-08-26T10:09:44.187Z,101325.63
2022-08-26T10:12:21.659Z,101314.55
2022-08-26T10:14:56.000Z,101315.92
2022-08-26T10:17:33.398Z,101315.20
2022-08-26T10:20:23.331Z,101301.96
2022-08-26T10:22:59.008Z,101298.10
2022-08-26T10:25:34.297Z,101294.21
2022-08-26T10:28:10.953Z,101289.93
2022-08-26T10:30:47.962Z,101279.01
2022-08-26T10:33:17.985Z,101273.38
2022-08-26T10:35:58.657Z,101280.22
2022-08-26T10:38:33.547Z,101272.43
2022-08-26T10:41:09.779Z,101268.94
2022-08-26T10:43:44.005Z,101257.00
2022-08-26T10:46:18.377Z,101264.65
2022-08-26T10:48:57.212Z,101261.12
2022-08-26T10:51:36.687Z,101258.18
2022-08-26T10:54:27.256Z,101262.10
2022-08-26T10:56:55.655Z,101259.16
2022-08-26T10:59:31.999Z,101251.54
2022-08-26T11:02:24.171Z,101256.80
2022-08-26T11:05:06.535Z,101245.69
2022-08-26T11:07:44.648Z,101245.26
2022-08-26T11:10:21.400Z,101230.97
2022-08-26T11:13:01.628Z,101233.68
2022-08-26T11:15:30.540Z,101225.25
2022-08-26T11:18:05.336Z,101225.28
2022-08-26T11:20:33.172Z,101223.52
2022-08-26T11:23:19.899Z,101223.09
2022-08-26T11:26:07.424Z,101210.73
2022-08-26T11:28:49.721Z,101211.32
2022-08-26T11:31:21.055Z,101209.52
2022-08-26T11:33:59.873Z,101199.12
2022-08-26T11:36:30.891Z,101191.63
2022-08-26T11:38:59.687Z,101196.08
2022-08-26T11:41:30.974Z,101188.63
2022-08-26T11:44:01.313Z,101193.07
2022-08-26T11:46:36.824Z,101194.41
2022-08-26T11:49:08.027Z,101188.46
2022-08-26T11:51:40.190Z,101187.09
2022-08-26T11:54:30.486Z,101182.18
2022-08-26T11:57:09.452Z,101187.28
2022-08-26T11:59:41.818Z,101179.23
2022-08-26T12:02:18.176Z,101174.53
2022-08-26T12:04:50.115Z,101179.01
2022-08-26T12:07:24.470Z,101176.46
2022-08-26T12:10:05.784Z,101176.00
2022-08-26T12:12:36.272Z,101175.58
2022-08-26T12:15:15.158Z,101180.61
2022-08-26T12:17:44.772Z,101177.08
2022-08-26T12:20:49.511Z,101187.02
2022-08-26T12:23:24.582Z,101183.85
2022-08-26T12:26:03.391Z,101183.59
2022-08-26T12:28:32.278Z,101179.01
2022-08-26T12:31:02.666Z,101171.36
2022-08-26T12:33:31.341Z,101169.88
2022-08-26T12:36:01.783Z,101167.66
2022-08-26T12:38:31.001Z,101155.01
2022-08-26T12:40:59.223Z,101149.52
2022-08-26T12:43:46.280Z,101152.00
2022-08-26T12:46:26.742Z,101160.73
2022-08-26T12:48:54.694Z,101156.74
2022-08-26T12:51:26.780Z,101151.97
2022-08-26T12:53:55.689Z,101157.59
2022-08-26T12:56:26.426Z,101161.22
2022-08-26T12:59:07.153Z,101159.42
2022-08-26T13:01:44.085Z,101161.32
2022-08-26T13:04:42.164Z,101167.70
2022-08-26T13:07:27.817Z,101159.29
2022-08-26T13:09:58.501Z,101144.70
2022-08-26T13:12:33.184Z,101143.95
2022-08-26T13:15:03.910Z,101138.82
2022-08-26T13:17:32.606Z,101136.20
2022-08-26T13:20:03.826Z,101130.52
2022-08-26T13:22:32.670Z,101128.36
2022-08-26T13:25:00.474Z,101131.73
2022-08-26T13:27:28.682Z,101125.09
2022-08-26T13:29:58.836Z,101123.52
2022-08-26T13:32:27.558Z,101111.78
2022-08-26T13:34:57.404Z,101114.07
2022-08-26T13:37:34.678Z,101111.32
2022-08-26T13:40:06.636Z,101107.00
2022-08-26T13:42:34.706Z,101106.05
2022-08-26T13:45:02.570Z,101100.34
2022-08-26T13:47:30.455Z,101094.87
2022-08-26T13:49:58.167Z,101103.18
2022-08-26T13:52:30.602Z,101098.08
2022-08-26T13:55:01.138Z,101093.01
2022-08-26T13:57:31.484Z,101087.28
2022-08-26T14:00:00.347Z,101096.51
2022-08-26T14:02:28.752Z,101099.05
2022-08-26T14:04:56.992Z,101089.45
2022-08-26T14:07:24.840Z,101089.45
2022-08-26T14:09:52.623Z,101091.63
2022-08-26T14:12:20.632Z,101087.91
2022-08-26T14:14:48.750Z,101093.01
2022-08-26T14:17:22.419Z,101087.13
2022-08-26T14:19:51.536Z,101084.96
2022-08-26T14:22:22.276Z,101082.80
2022-08-26T14:24:50.570Z,101082.97
2022-08-26T14:27:18.437Z,101081.56
2022-08-26T14:29:46.374Z,101075.68
2022-08-26T14:32:22.577Z,101072.90
2022-08-26T14:34:50.915Z,101073.84
2022-08-26T14:37:20.089Z,101074.17
2022-08-26T14:39:48.238Z,101069.23
2022-08-26T14:42:21.650Z,101066.65
2022-08-26T14:44:56.491Z,101066.45
2022-08-26T14:47:24.235Z,101066.03
2022-08-26T14:49:52.217Z,101064.46
2022-08-26T14:52:20.078Z,101059.36
2022-08-26T14:54:47.865Z,101055.99
2022-08-26T14:57:22.514Z,101061.38
2022-08-26T14:59:51.495Z,101049.81
2022-08-26T15:02:32.797Z,101047.78
2022-08-26T15:05:01.862Z,101045.79
2022-08-26T15:07:29.676Z,101040.06
2022-08-26T15:09:57.472Z,101033.27
2022-08-26T15:12:25.351Z,101032.31
2022-08-26T15:14:53.030Z,101030.95
2022-08-26T15:17:20.792Z,101034.02
2022-08-26T15:19:48.636Z,101032.64
2022-08-26T15:22:16.356Z,101040.69
2022-08-26T15:24:44.396Z,101040.23
2022-08-26T15:27:12.099Z,101043.96
2022-08-26T15:29:40.214Z,101036.08
2022-08-26T15:32:07.996Z,101039.18
2022-08-26T15:34:35.878Z,101045.20
2022-08-26T15:37:03.713Z,101045.98
2022-08-26T15:39:31.468Z,101036.53
2022-08-26T15:42:00.810Z,101039.48
2022-08-26T15:44:29.258Z,101042.62
2022-08-26T15:46:58.790Z,101042.75
2022-08-26T15:49:27.615Z,101041.96
2022-08-26T15:51:56.091Z,101047.85
2022-08-26T15:54:24.772Z,101038.43
2022-08-26T15:56:54.106Z,101038.10
2022-08-26T15:59:23.190Z,101043.66
2022-08-26T16:01:51.831Z,101039.77
2022-08-26T16:04:19.801Z,101048.90
2022-08-26T16:06:51.175Z,101052.30
2022-08-26T16:09:20.031Z,101057.85
2022-08-26T16:11:47.798Z,101062.04
2022-08-26T16:14:15.577Z,101071.00
2022-08-26T16:16:43.300Z,101076.73
2022-08-26T16:19:12.651Z,101073.78
2022-08-26T16:21:42.124Z,101073.78
2022-08-26T16:24:10.369Z,101070.05
2022-08-26T16:26:39.735Z,101064.82
2022-08-26T16:29:11.571Z,101063.09
2022-08-26T16:31:40.154Z,101065.08
2022-08-26T16:34:09.466Z,101070.80
2022-08-26T16:36:39.022Z,101079.47
2022-08-26T16:39:08.954Z,101075.68
2022-08-26T16:41:37.179Z,101074.40
2022-08-26T16:44:06.539Z,101075.12
2022-08-26T16:46:35.064Z,101078.06
2022-08-26T16:49:05.598Z,101082.51
2022-08-26T16:51:37.964Z,101078.72
2022-08-26T16:54:08.101Z,101076.00
2022-08-26T16:56:36.270Z,101075.55
2022-08-26T16:59:10.149Z,101077.45
2022-08-26T17:01:37.971Z,101067.05
2022-08-26T17:04:06.226Z,101069.46
2022-08-26T17:06:34.035Z,101066.42
2022-08-26T17:09:01.801Z,101073.75
2022-08-26T17:11:29.541Z,101072.05
2022-08-26T17:13:58.018Z,101077.61
2022-08-26T17:16:27.016Z,101085.09
2022-08-26T17:18:57.681Z,101091.44
2022-08-26T17:21:26.866Z,101097.20
2022-08-26T17:23:54.746Z,101087.48
2022-08-26T17:26:22.658Z,101105.11
2022-08-26T17:28:51.533Z,101106.68
2022-08-26T17:31:20.313Z,101111.02
2022-08-26T17:33:53.739Z,101119.27
2022-08-26T17:36:22.795Z,101125.74
2022-08-26T17:38:55.506Z,101126.52
2022-08-26T17:41:23.245Z,101140.62
2022-08-26T17:43:50.892Z,101148.23
2022-08-26T17:46:18.607Z,101148.27
2022-08-26T17:48:48.260Z,101155.50
2022-08-26T17:51:20.272Z,101159.62
2022-08-26T17:53:49.044Z,101159.20
2022-08-26T17:56:19.386Z,101162.92
2022-08-26T17:58:51.487Z,101165.47
2022-08-26T18:01:21.327Z,101166.65
2022-08-26T18:03:49.699Z,101168.58
2022-08-26T18:06:17.668Z,101172.11
2022-08-26T18:08:46.080Z,101174.23
2022-08-26T18:11:18.338Z,101175.41
2022-08-26T18:13:47.756Z,101173.68
2022-08-26T18:16:18.257Z,101166.26
2022-08-26T18:18:47.623Z,101164.69
2022-08-26T18:21:24.349Z,101158.64
2022-08-26T18:23:53.217Z,101168.58
2022-08-26T18:26:28.191Z,101188.30
2022-08-26T18:28:56.075Z,101227.11
2022-08-26T18:31:24.330Z,101316.09
2022-08-26T18:33:52.346Z,101292.12
2022-08-26T18:36:24.099Z,101293.59
2022-08-26T18:38:52.693Z,101266.29
2022-08-26T18:41:22.234Z,101276.69
2022-08-26T18:43:52.138Z,101282.70
2022-08-26T18:46:21.203Z,101305.79
2022-08-26T18:48:51.221Z,101302.42
2022-08-26T18:51:25.558Z,101291.40
2022-08-26T18:53:53.394Z,101291.14
2022-08-26T18:56:21.480Z,101286.16
2022-08-26T18:58:49.869Z,101297.55
2022-08-26T19:01:20.897Z,101313.87
2022-08-26T19:03:50.258Z,101322.04
2022-08-26T19:06:23.526Z,101312.59
2022-08-26T19:08:51.867Z,101299.97
2022-08-26T19:11:32.109Z,101300.78
2022-08-26T19:14:08.384Z,101300.03
2022-08-26T19:16:37.674Z,101307.98
2022-08-26T19:19:06.288Z,101293.79
2022-08-26T19:21:35.621Z,101292.77
2022-08-26T19:24:05.864Z,101300.95
2022-08-26T19:26:34.197Z,101302.32
2022-08-26T19:29:02.349Z,101293.13
2022-08-26T19:31:30.172Z,101312.36
2022-08-26T19:33:59.117Z,101311.31
2022-08-26T19:36:28.567Z,101318.15
2022-08-26T19:38:57.923Z,101332.34
2022-08-26T19:41:36.882Z,101336.55
2022-08-26T19:44:09.327Z,101336.00
2022-08-26T19:49:06.515Z,101350.49
2022-08-26T19:51:35.999Z,101361.31
2022-08-26T19:54:03.749Z,101357.88
2022-08-26T19:56:31.573Z,101352.09
2022-08-26T19:58:59.405Z,101358.66
2022-08-26T20:01:27.253Z,101370.24
2022-08-26T20:06:23.705Z,101391.30
2022-08-26T20:08:52.093Z,101376.02
2022-08-26T20:11:24.993Z,101376.29
2022-08-26T20:13:52.717Z,101368.41
2022-08-26T20:16:20.638Z,101371.55
2022-08-26T20:19:07.036Z,101364.68
2022-08-26T20:21:40.867Z,101363.63
2022-08-26T20:24:14.361Z,101375.24
2022-08-26T20:26:44.181Z,101383.13
2022-08-26T20:29:14.674Z,101384.17
2022-08-26T20:31:45.131Z,101395.78
2022-08-26T20:34:15.414Z,101403.40
2022-08-26T20:36:44.026Z,101413.66
2022-08-26T20:39:12.979Z,101398.39
2022-08-26T20:41:41.035Z,101402.91
2022-08-26T20:44:09.257Z,101402.35
2022-08-26T20:46:37.407Z,101416.05
2022-08-26T20:49:07.505Z,101428.15
2022-08-26T20:51:35.727Z,101449.73
2022-08-26T20:54:03.506Z,101458.40
2022-08-26T20:56:31.225Z,101449.15
2022-08-26T20:59:03.185Z,101448.10
2022-08-26T21:01:35.657Z,101454.12
2022-08-26T21:04:05.660Z,101471.19
2022-08-26T21:06:34.938Z,101467.49
2022-08-26T21:09:05.057Z,101459.34
2022-08-26T21:11:32.792Z,101444.86
2022-08-26T21:14:07.160Z,101451.70
2022-08-26T21:16:44.971Z,101461.15
2022-08-26T21:19:15.802Z,101450.62
2022-08-26T21:21:45.534Z,101465.59
2022-08-26T21:24:14.406Z,101468.44
2022-08-26T21:26:42.492Z,101461.63
2022-08-26T21:29:10.826Z,101468.18
2022-08-26T21:31:45.051Z,101470.53
2022-08-26T21:34:18.532Z,101465.82
2022-08-26T21:36:49.769Z,101479.20
2022-08-26T21:39:18.143Z,101484.40
2022-08-26T21:41:46.387Z,101486.52
2022-08-26T21:44:15.830Z,101487.05
2022-08-26T21:46:45.155Z,101486.75
2022-08-26T21:49:16.743Z,101497.31
2022-08-26T21:51:48.855Z,101497.67
2022-08-26T21:54:17.192Z,101491.66
2022-08-26T21:56:47.786Z,101489.79
2022-08-26T21:59:19.884Z,101489.79
2022-08-26T22:01:48.117Z,101486.39
2022-08-26T22:04:16.836Z,101500.62
2022-08-26T22:06:48.188Z,101497.18
2022-08-26T22:09:18.513Z,101494.60
2022-08-26T22:11:47.429Z,101480.15
2022-08-26T22:14:16.402Z,101481.71
2022-08-26T22:16:50.093Z,101480.15
2022-08-26T22:19:18.642Z,101480.90
2022-08-26T22:21:46.450Z,101490.09
2022-08-26T22:24:14.541Z,101491.13
2022-08-26T22:26:42.262Z,101487.96
2022-08-26T22:29:10.008Z,101494.01
2022-08-26T22:31:38.763Z,101478.48
2022-08-26T22:34:09.236Z,101479.00
2022-08-26T22:36:43.104Z,101480.60
2022-08-26T22:39:13.194Z,101479.26
2022-08-26T22:41:44.035Z,101467.72
2022-08-26T22:44:12.950Z,101463.27
2022-08-26T22:46:42.212Z,101470.89
2022-08-26T22:49:12.389Z,101469.06
2022-08-26T22:51:40.256Z,101476.45
2022-08-26T22:54:08.024Z,101479.59
2022-08-26T22:56:36.616Z,101475.41
2022-08-26T22:59:05.457Z,101477.01
2022-08-26T23:01:36.650Z,101486.98
2022-08-26T23:04:05.951Z,101481.48
2022-08-26T23:06:39.544Z,101489.37
2022-08-26T23:09:09.194Z,101488.84
2022-08-26T23:11:37.307Z,101487.80
2022-08-26T23:14:06.523Z,101489.10
2022-08-26T23:16:39.884Z,101485.67
2022-08-26T23:19:08.572Z,101486.20
2022-08-26T23:21:36.475Z,101477.53
2022-08-26T23:24:04.736Z,101485.70
2022-08-26T23:26:32.936Z,101475.17
2022-08-26T23:29:01.243Z,101484.10
2022-08-26T23:31:29.006Z,101470.95
2022-08-26T23:34:15.207Z,101473.08
2022-08-26T23:36:44.378Z,101473.34
2022-08-26T23:39:14.506Z,101472.30
2022-08-26T23:41:42.738Z,101468.60
2022-08-26T23:44:10.536Z,101460.72
2022-08-26T23:46:38.294Z,101450.71
2022-08-26T23:49:06.390Z,101441.52
2022-08-26T23:51:52.850Z,101441.79
2022-08-26T23:54:20.780Z,101447.58
2022-08-26T23:56:48.546Z,101445.48
2022-08-26T23:59:16.710Z,101437.30
